Time;durP1;ratioP1;P1;durP2;ratioP2;P2;SDS_P1;SDS_P2;PMS_P1;PMS_P2;Temp;Humidity;BMP_temperature;BMP_pressure;BME280_temperature;BME280_humidity;BME280_pressure;Samples;Min_cycle;Max_cycle;Signal;HPM_P1;HPM_P2
2021/05/05 00:01:48;;;;;;;8.30;1.95;;;17.80;51.50;;;;;;6246768;23;20000;-91
2021/05/05 00:04:13;;;;;;;7.15;2.08;;;17.80;51.50;;;;;;6246994;23;20047;-91
2021/05/05 00:06:40;;;;;;;5.47;1.23;;;17.70;51.60;;;;;;6246554;23;20008;-90
2021/05/05 00:09:06;;;;;;;7.75;1.67;;;17.70;51.60;;;;;;6246628;23;20004;-88
2021/05/05 00:11:32;;;;;;;5.07;1.70;;;17.70;51.60;;;;;;6246843;23;20008;-90
2021/05/05 00:13:57;;;;;;;8.07;2.10;;;17.70;51.60;;;;;;6247255;23;20000;-91
2021/05/05 00:16:23;;;;;;;6.22;1.60;;;17.70;51.50;;;;;;6246409;23;20004;-88
2021/05/05 00:18:49;;;;;;;5.70;1.25;;;17.70;51.50;;;;;;6246455;23;20004;-88
2021/05/05 00:21:14;;;;;;;5.30;1.15;;;17.70;51.50;;;;;;6246170;23;20004;-88
2021/05/05 00:23:40;;;;;;;5.57;1.60;;;17.70;51.60;;;;;;6246561;23;20004;-93
2021/05/05 00:26:06;;;;;;;5.45;2.05;;;17.60;51.60;;;;;;6247284;23;20011;-93
2021/05/05 00:28:31;;;;;;;7.50;1.80;;;17.60;51.50;;;;;;6247649;23;20008;-92
2021/05/05 00:30:57;;;;;;;6.13;1.50;;;17.60;51.60;;;;;;6248197;23;20040;-94
2021/05/05 00:33:23;;;;;;;5.97;1.58;;;17.60;51.60;;;;;;6263672;23;19996;-92
2021/05/05 00:35:48;;;;;;;6.45;1.50;;;17.50;51.50;;;;;;6246556;23;20010;-88
2021/05/05 00:38:14;;;;;;;4.72;1.63;;;17.60;51.60;;;;;;6246146;23;20000;-87
2021/05/05 00:40:40;;;;;;;6.32;1.50;;;17.50;51.60;;;;;;6246018;23;19996;-89
2021/05/05 00:43:06;;;;;;;5.85;1.60;;;17.50;51.60;;;;;;6246284;23;20019;-88
2021/05/05 00:45:31;;;;;;;7.25;2.00;;;17.50;51.60;;;;;;6246481;23;19996;-91
2021/05/05 00:47:57;;;;;;;3.85;1.23;;;17.50;51.60;;;;;;6246318;23;20047;-91
2021/05/05 00:50:23;;;;;;;4.65;1.20;;;17.50;51.60;;;;;;6245260;23;20012;-89
2021/05/05 00:52:49;;;;;;;3.80;1.52;;;17.50;51.70;;;;;;6246480;23;20456;-90
2021/05/05 00:55:14;;;;;;;5.82;1.55;;;17.50;51.70;;;;;;6245676;23;20000;-92
2021/05/05 00:57:41;;;;;;;5.88;1.70;;;17.40;51.60;;;;;;6246428;23;20000;-90
2021/05/05 01:00:09;;;;;;;4.82;1.50;;;17.40;51.70;;;;;;6246269;23;19996;-92
2021/05/05 01:02:36;;;;;;;4.13;1.20;;;17.40;51.70;;;;;;6246766;23;20032;-91
2021/05/05 01:05:02;;;;;;;4.55;1.60;;;17.40;51.70;;;;;;6246090;23;20492;-90
2021/05/05 01:07:28;;;;;;;4.28;1.60;;;17.30;51.90;;;;;;6246468;23;20058;-90
2021/05/05 01:09:54;;;;;;;8.13;1.42;;;17.30;51.90;;;;;;6245793;23;20066;-90
2021/05/05 01:12:20;;;;;;;4.40;1.35;;;17.30;51.90;;;;;;6246610;23;20004;-89
2021/05/05 01:14:45;;;;;;;6.55;1.80;;;17.30;51.90;;;;;;6246244;23;20011;-89
2021/05/05 01:17:12;;;;;;;5.55;1.20;;;17.30;52.00;;;;;;6244655;23;20106;-90
2021/05/05 01:19:37;;;;;;;4.78;1.35;;;17.20;52.00;;;;;;6246229;23;20009;-89
2021/05/05 01:22:03;;;;;;;4.57;1.60;;;17.20;52.00;;;;;;6246710;23;20079;-91
2021/05/05 01:24:32;;;;;;;3.90;1.15;;;17.20;52.00;;;;;;6245363;23;19996;-82
2021/05/05 01:26:57;;;;;;;3.40;1.13;;;17.20;52.10;;;;;;6244932;23;20016;-81
2021/05/05 01:29:23;;;;;;;5.18;1.80;;;17.20;52.00;;;;;;6245108;23;20000;-83
2021/05/05 01:31:48;;;;;;;5.47;1.83;;;17.20;52.00;;;;;;6244843;23;20014;-84
2021/05/05 01:34:14;;;;;;;3.15;0.90;;;17.20;52.00;;;;;;6243262;23;20318;-79
2021/05/05 01:36:42;;;;;;;5.72;1.50;;;17.20;51.90;;;;;;6244786;23;20058;-80
2021/05/05 01:39:14;;;;;;;3.80;1.08;;;17.10;52.00;;;;;;6243112;23;20007;-83
2021/05/05 01:41:40;;;;;;;3.40;1.52;;;17.10;52.00;;;;;;6245176;23;20068;-83
2021/05/05 01:44:06;;;;;;;5.07;1.30;;;17.10;52.10;;;;;;6245217;23;20047;-80
2021/05/05 01:46:32;;;;;;;4.35;1.42;;;17.10;52.10;;;;;;6244330;23;20004;-77
2021/05/05 01:48:57;;;;;;;4.00;1.10;;;17.10;52.10;;;;;;6242812;23;20374;-79
2021/05/05 01:51:24;;;;;;;2.97;0.90;;;17.10;52.10;;;;;;6244325;23;20015;-78
2021/05/05 01:53:49;;;;;;;4.90;0.93;;;17.10;52.10;;;;;;6244508;23;20001;-77
2021/05/05 01:56:15;;;;;;;4.25;1.30;;;17.00;52.00;;;;;;6244539;23;20371;-82
2021/05/05 01:58:41;;;;;;;4.25;1.10;;;17.00;52.00;;;;;;6244466;23;19997;-79
2021/05/05 02:01:07;;;;;;;6.15;1.27;;;17.00;52.00;;;;;;6244804;23;19996;-86
2021/05/05 02:03:33;;;;;;;5.00;1.17;;;17.00;52.10;;;;;;6242703;23;20034;-86
2021/05/05 02:05:59;;;;;;;7.35;1.20;;;17.00;52.10;;;;;;6242836;23;20004;-89
2021/05/05 02:08:25;;;;;;;3.08;0.85;;;16.90;52.10;;;;;;6245268;23;20011;-89
2021/05/05 02:10:50;;;;;;;3.75;0.98;;;16.90;52.10;;;;;;6245532;23;20047;-91
2021/05/05 02:13:16;;;;;;;3.97;1.25;;;16.90;52.20;;;;;;6244782;23;20000;-90
2021/05/05 02:15:42;;;;;;;3.40;0.95;;;16.90;52.20;;;;;;6246147;23;20007;-93
2021/05/05 02:18:10;;;;;;;3.53;1.42;;;16.90;52.20;;;;;;6246214;23;19996;-93
2021/05/05 02:20:37;;;;;;;3.78;1.00;;;16.90;52.20;;;;;;6244276;23;20008;-87
2021/05/05 02:23:03;;;;;;;4.15;1.40;;;16.80;52.10;;;;;;6244680;23;20393;-88
2021/05/05 02:25:29;;;;;;;6.07;1.67;;;16.80;52.20;;;;;;6244917;23;20004;-88
2021/05/05 02:27:55;;;;;;;3.83;1.02;;;16.90;52.20;;;;;;6244893;23;20498;-86
2021/05/05 02:30:21;;;;;;;5.72;1.27;;;16.80;52.20;;;;;;6244924;23;20008;-88
2021/05/05 02:32:48;;;;;;;3.40;1.00;;;16.80;52.20;;;;;;6243019;23;20028;-88
2021/05/05 02:35:14;;;;;;;3.03;1.05;;;16.80;52.10;;;;;;6244517;23;20011;-86
2021/05/05 02:37:43;;;;;;;3.53;1.00;;;16.80;52.10;;;;;;6245059;23;20429;-93
2021/05/05 02:40:09;;;;;;;4.07;1.17;;;16.80;52.10;;;;;;6246677;23;20011;-90
2021/05/05 02:42:35;;;;;;;3.67;1.23;;;16.80;52.10;;;;;;6245215;23;20007;-92
2021/05/05 02:45:01;;;;;;;3.83;1.40;;;16.80;52.10;;;;;;6245152;23;20008;-90
2021/05/05 02:47:27;;;;;;;4.18;1.30;;;16.80;52.10;;;;;;6244852;23;20056;-90
2021/05/05 02:49:53;;;;;;;6.13;1.20;;;16.70;52.10;;;;;;6245173;23;20509;-91
2021/05/05 02:52:18;;;;;;;4.10;1.08;;;16.70;52.20;;;;;;6245400;23;20079;-91
2021/05/05 02:54:44;;;;;;;5.20;1.05;;;16.70;52.20;;;;;;6245757;23;20027;-88
2021/05/05 02:57:10;;;;;;;3.22;0.93;;;16.70;52.20;;;;;;6244840;23;19996;-90
2021/05/05 02:59:36;;;;;;;3.47;1.00;;;16.70;52.20;;;;;;6245602;23;20058;-91
2021/05/05 03:02:02;;;;;;;3.60;0.90;;;16.70;52.10;;;;;;6245395;23;20103;-89
2021/05/05 03:04:28;;;;;;;3.10;0.85;;;16.70;52.10;;;;;;6245182;23;19996;-85
2021/05/05 03:06:55;;;;;;;4.40;1.15;;;16.70;52.20;;;;;;6244963;23;20012;-92
2021/05/05 03:09:24;;;;;;;4.57;0.93;;;16.60;52.10;;;;;;6245125;23;20054;-90
2021/05/05 03:11:51;;;;;;;4.60;1.17;;;16.60;52.10;;;;;;6245120;23;20011;-92
2021/05/05 03:14:16;;;;;;;2.95;1.20;;;16.60;52.10;;;;;;6245292;23;20080;-87
2021/05/05 03:16:42;;;;;;;3.22;1.00;;;16.60;52.10;;;;;;6245430;23;20008;-84
2021/05/05 03:19:07;;;;;;;4.78;1.25;;;16.60;52.10;;;;;;6244745;23;20395;-90
2021/05/05 03:21:33;;;;;;;2.90;0.77;;;16.60;52.20;;;;;;6245150;23;20054;-87
2021/05/05 03:23:59;;;;;;;7.47;1.05;;;16.60;52.20;;;;;;6245019;23;20000;-89
2021/05/05 03:26:25;;;;;;;3.38;0.93;;;16.60;52.20;;;;;;6244612;23;20348;-85
2021/05/05 03:28:50;;;;;;;3.28;1.10;;;16.50;52.20;;;;;;6246179;23;20071;-86
2021/05/05 03:31:16;;;;;;;2.50;0.75;;;16.50;52.20;;;;;;6246470;23;20043;-85
2021/05/05 03:33:41;;;;;;;2.05;0.73;;;16.50;52.20;;;;;;6246580;23;20032;-83
2021/05/05 03:36:07;;;;;;;3.30;0.80;;;16.50;52.20;;;;;;6246728;23;20007;-82
2021/05/05 03:38:33;;;;;;;2.95;1.00;;;16.50;52.20;;;;;;6245459;23;20015;-87
2021/05/05 03:40:58;;;;;;;2.20;0.93;;;16.50;52.10;;;;;;6246442;23;20071;-85
2021/05/05 03:43:24;;;;;;;4.45;0.90;;;16.50;52.20;;;;;;6245996;23;20000;-87
2021/05/05 03:45:50;;;;;;;5.07;1.40;;;16.50;52.10;;;;;;6246057;23;20066;-79
2021/05/05 03:48:16;;;;;;;4.28;1.17;;;16.50;52.10;;;;;;6246014;23;20387;-81
2021/05/05 03:50:42;;;;;;;3.72;0.90;;;16.50;52.20;;;;;;6246425;23;20087;-81
2021/05/05 03:53:08;;;;;;;4.50;1.20;;;16.50;52.20;;;;;;6246092;23;20008;-79
2021/05/05 03:55:34;;;;;;;3.63;1.10;;;16.40;52.10;;;;;;6246128;23;20428;-85
2021/05/05 03:57:59;;;;;;;4.25;1.20;;;16.40;52.10;;;;;;6246423;23;20064;-85
2021/05/05 04:00:25;;;;;;;2.80;1.00;;;16.40;52.10;;;;;;6246297;23;20436;-87
2021/05/05 04:02:51;;;;;;;2.03;0.70;;;16.40;52.10;;;;;;6246368;23;20059;-86
2021/05/05 04:05:17;;;;;;;3.05;0.98;;;16.40;52.20;;;;;;6246234;23;20083;-86
2021/05/05 04:07:43;;;;;;;3.15;0.73;;;16.40;52.10;;;;;;6246779;23;20000;-78
2021/05/05 04:10:09;;;;;;;2.42;0.70;;;16.40;52.10;;;;;;6244320;23;20016;-78
2021/05/05 04:12:40;;;;;;;4.57;0.93;;;16.40;52.10;;;;;;6245652;23;20433;-78
2021/05/05 04:15:06;;;;;;;3.83;1.05;;;16.40;52.10;;;;;;6245633;23;20071;-82
2021/05/05 04:17:32;;;;;;;3.55;1.20;;;16.30;52.10;;;;;;6245990;23;20003;-90
2021/05/05 04:19:58;;;;;;;2.95;0.90;;;16.30;52.20;;;;;;6246707;23;19996;-89
2021/05/05 04:22:24;;;;;;;2.03;0.80;;;16.30;52.20;;;;;;6246363;23;20031;-90
2021/05/05 04:24:50;;;;;;;3.63;0.88;;;16.30;52.10;;;;;;6246402;23;19996;-88
2021/05/05 04:27:17;;;;;;;3.03;0.90;;;16.30;52.70;;;;;;6245808;23;20012;-87
2021/05/05 04:29:42;;;;;;;5.10;0.80;;;16.30;52.70;;;;;;6245778;23;20020;-87
2021/05/05 04:32:09;;;;;;;2.40;0.88;;;16.30;52.10;;;;;;6245812;23;20498;-91
2021/05/05 04:34:35;;;;;;;2.63;0.90;;;16.30;52.10;;;;;;6246752;23;20031;-89
2021/05/05 04:37:03;;;;;;;1.85;0.95;;;16.30;52.10;;;;;;6246670;23;20046;-91
2021/05/05 04:39:29;;;;;;;2.00;0.85;;;16.30;52.10;;;;;;6251214;23;20011;-92
2021/05/05 04:41:55;;;;;;;2.08;0.70;;;16.20;52.10;;;;;;6263379;23;20071;-92
2021/05/05 04:44:20;;;;;;;3.92;0.93;;;16.20;52.10;;;;;;6261494;23;20004;-87
2021/05/05 04:46:46;;;;;;;2.33;0.95;;;16.20;52.10;;;;;;6262155;23;19996;-92
2021/05/05 04:49:12;;;;;;;2.63;0.80;;;16.20;52.10;;;;;;6252125;23;20000;-88
2021/05/05 04:51:39;;;;;;;2.42;0.75;;;16.20;52.10;;;;;;6246520;23;20004;-91
2021/05/05 04:54:07;;;;;;;3.38;0.82;;;16.20;52.10;;;;;;6246510;23;20126;-94
2021/05/05 04:56:34;;;;;;;3.05;0.80;;;16.20;52.10;;;;;;6245084;23;20436;-93
2021/05/05 04:59:00;;;;;;;1.80;0.70;;;16.20;52.10;;;;;;6245163;23;20055;-92
2021/05/05 05:01:26;;;;;;;2.10;0.70;;;16.20;52.10;;;;;;6246671;23;20079;-93
2021/05/05 05:03:51;;;;;;;3.85;0.90;;;16.20;52.10;;;;;;6246654;23;20028;-94
2021/05/05 05:06:17;;;;;;;2.90;0.70;;;16.10;52.10;;;;;;6247385;23;19996;-90
2021/05/05 05:08:43;;;;;;;2.78;0.70;;;16.10;52.10;;;;;;6246542;23;20004;-90
2021/05/05 05:11:08;;;;;;;2.55;0.80;;;16.10;52.10;;;;;;6246056;23;20008;-89
2021/05/05 05:13:34;;;;;;;4.28;1.20;;;16.10;52.10;;;;;;6245873;23;20054;-88
2021/05/05 05:16:00;;;;;;;3.00;0.82;;;16.10;52.20;;;;;;6246106;23;20075;-87
2021/05/05 05:18:25;;;;;;;2.92;0.80;;;16.10;52.10;;;;;;6247296;23;20032;-88
2021/05/05 05:20:51;;;;;;;2.40;0.70;;;16.10;52.10;;;;;;6246999;23;20387;-91
2021/05/05 05:23:17;;;;;;;3.17;0.98;;;16.10;52.10;;;;;;6247489;23;20011;-91
2021/05/05 05:25:43;;;;;;;3.10;0.70;;;16.10;52.10;;;;;;6247866;23;20008;-93
2021/05/05 05:28:09;;;;;;;2.58;0.90;;;16.10;52.10;;;;;;6259601;23;20004;-89
2021/05/05 05:30:34;;;;;;;2.95;0.85;;;16.10;52.10;;;;;;6256341;23;20035;-93
2021/05/05 05:33:00;;;;;;;2.17;0.70;;;16.10;52.10;;;;;;6256357;23;20054;-91
2021/05/05 05:35:26;;;;;;;3.05;0.88;;;16.00;52.10;;;;;;6253594;23;20004;-91
2021/05/05 05:37:52;;;;;;;2.15;0.70;;;16.00;52.10;;;;;;6251262;23;20000;-87
2021/05/05 05:40:18;;;;;;;3.40;0.80;;;16.00;52.10;;;;;;6246569;23;20000;-87
2021/05/05 05:42:44;;;;;;;2.30;0.73;;;16.00;52.10;;;;;;6244986;23;20054;-86
2021/05/05 05:45:12;;;;;;;2.20;0.80;;;16.00;52.10;;;;;;6245414;23;20029;-87
2021/05/05 05:47:38;;;;;;;2.47;1.00;;;16.00;52.10;;;;;;6245429;23;19999;-89
2021/05/05 05:50:04;;;;;;;3.38;0.60;;;16.00;52.10;;;;;;6245237;23;20083;-88
2021/05/05 05:52:30;;;;;;;2.30;0.90;;;16.00;52.10;;;;;;6245371;23;20066;-91
2021/05/05 05:54:56;;;;;;;3.08;0.68;;;16.00;52.10;;;;;;6246333;23;20000;-92
2021/05/05 05:57:21;;;;;;;2.40;0.93;;;16.00;52.10;;;;;;6246523;23;20310;-92
2021/05/05 05:59:47;;;;;;;3.08;1.05;;;16.00;52.10;;;;;;6247582;23;20006;-90
2021/05/05 06:02:13;;;;;;;3.83;1.35;;;16.00;52.10;;;;;;6246660;23;20004;-90
2021/05/05 06:04:38;;;;;;;2.80;0.70;;;16.00;52.10;;;;;;6245018;23;20067;-85
2021/05/05 06:07:04;;;;;;;2.47;0.70;;;15.90;52.10;;;;;;6244818;23;20004;-87
2021/05/05 06:09:29;;;;;;;4.75;0.90;;;15.90;52.10;;;;;;6244902;23;19997;-86
2021/05/05 06:11:55;;;;;;;2.08;0.80;;;15.90;52.10;;;;;;6245029;23;20012;-88
2021/05/05 06:14:21;;;;;;;4.05;0.90;;;15.90;52.10;;;;;;6245275;23;20007;-80
2021/05/05 06:16:46;;;;;;;3.17;0.80;;;15.90;52.10;;;;;;6245142;23;20422;-88
2021/05/05 06:19:12;;;;;;;4.13;0.75;;;15.90;52.10;;;;;;6244997;23;20050;-84
2021/05/05 06:21:37;;;;;;;3.78;0.60;;;15.90;52.10;;;;;;6242416;23;20001;-81
2021/05/05 06:24:04;;;;;;;2.03;0.80;;;15.90;52.10;;;;;;6240582;23;20102;-83
2021/05/05 06:26:30;;;;;;;3.10;0.82;;;15.90;52.10;;;;;;6240519;23;20011;-80
2021/05/05 06:28:55;;;;;;;2.92;0.60;;;15.90;52.10;;;;;;6243634;23;20004;-88
2021/05/05 06:31:21;;;;;;;2.90;0.60;;;15.90;52.20;;;;;;6243646;23;20035;-78
2021/05/05 06:33:47;;;;;;;3.40;0.80;;;15.90;52.20;;;;;;6242802;23;19996;-83
2021/05/05 06:36:12;;;;;;;3.05;1.08;;;15.90;52.30;;;;;;6243366;23;20014;-86
2021/05/05 06:38:38;;;;;;;4.50;0.65;;;15.90;52.40;;;;;;6243570;23;20000;-82
2021/05/05 06:41:04;;;;;;;2.33;0.60;;;15.90;52.50;;;;;;6242465;23;20008;-81
2021/05/05 06:43:29;;;;;;;2.22;0.85;;;15.90;52.50;;;;;;6242484;23;19996;-82
2021/05/05 06:45:55;;;;;;;3.53;0.80;;;15.90;52.60;;;;;;6242757;23;20079;-80
2021/05/05 06:48:21;;;;;;;3.03;0.70;;;15.90;52.50;;;;;;6243419;23;20004;-83
2021/05/05 06:50:47;;;;;;;1.80;0.70;;;15.90;52.40;;;;;;6243090;23;20456;-83
2021/05/05 06:53:13;;;;;;;2.15;0.70;;;16.00;52.50;;;;;;6243079;23;20453;-83
2021/05/05 06:55:38;;;;;;;3.10;1.00;;;16.10;52.60;;;;;;6242406;23;20040;-83
2021/05/05 06:58:04;;;;;;;1.60;0.60;;;16.10;52.80;;;;;;6242946;23;20004;-81
2021/05/05 07:00:30;;;;;;;2.92;0.90;;;16.20;52.80;;;;;;6243366;23;20004;-83
2021/05/05 07:02:56;;;;;;;1.55;0.80;;;16.20;52.90;;;;;;6242312;23;20440;-84
2021/05/05 07:05:22;;;;;;;4.38;0.65;;;16.20;53.00;;;;;;6242495;23;20003;-83
2021/05/05 07:07:47;;;;;;;2.13;0.60;;;16.30;53.00;;;;;;6242334;23;20058;-83
2021/05/05 07:10:13;;;;;;;2.67;0.60;;;16.40;53.30;;;;;;6243149;23;20341;-85
2021/05/05 07:12:40;;;;;;;5.22;1.10;;;16.40;53.30;;;;;;6243369;23;20507;-83
2021/05/05 07:15:07;;;;;;;10.23;2.45;;;16.40;53.20;;;;;;6242926;23;20345;-83
2021/05/05 07:17:33;;;;;;;3.90;2.05;;;16.50;53.40;;;;;;6243368;23;20094;-84
2021/05/05 07:19:58;;;;;;;10.73;2.08;;;16.50;53.30;;;;;;6242985;23;20381;-86
2021/05/05 07:22:24;;;;;;;3.42;1.80;;;16.60;53.60;;;;;;6244021;23;20126;-84
2021/05/05 07:24:50;;;;;;;5.90;1.75;;;16.70;53.50;;;;;;6242740;23;20076;-86
2021/05/05 07:27:17;;;;;;;3.33;1.40;;;16.70;53.40;;;;;;6242343;22;20206;-84
2021/05/05 07:29:43;;;;;;;4.25;1.20;;;16.80;53.30;;;;;;6242547;23;20016;-84
2021/05/05 07:32:09;;;;;;;3.22;1.02;;;16.90;53.40;;;;;;6244122;23;20004;-87
2021/05/05 07:34:38;;;;;;;5.07;1.15;;;16.90;53.30;;;;;;6242857;23;20012;-79
2021/05/05 07:37:17;;;;;;;2.80;1.25;;;17.00;53.10;;;;;;6242507;23;20012;-79
2021/05/05 07:47:53;;;;;;;2.42;0.98;;;17.30;52.70;;;;;;6207618;23;20036;-75
2021/05/05 07:50:19;;;;;;;4.25;1.05;;;17.30;52.50;;;;;;6243483;22;20011;-77
2021/05/05 07:52:45;;;;;;;2.97;0.98;;;17.40;52.40;;;;;;6242698;23;20004;-75
2021/05/05 07:55:11;;;;;;;2.58;1.00;;;17.40;52.20;;;;;;6242206;23;20040;-75
2021/05/05 07:57:40;;;;;;;4.25;0.93;;;17.50;52.10;;;;;;6242194;23;20004;-75
2021/05/05 08:00:07;;;;;;;5.47;0.98;;;17.50;51.80;;;;;;6243131;23;20000;-75
2021/05/05 08:02:33;;;;;;;3.50;0.60;;;17.50;51.90;;;;;;6242152;23;20018;-74
2021/05/05 08:04:59;;;;;;;5.20;1.00;;;17.60;52.10;;;;;;6239139;23;20004;-74
2021/05/05 08:07:25;;;;;;;5.25;1.13;;;17.60;52.10;;;;;;6243273;23;19996;-75
2021/05/05 08:09:50;;;;;;;4.47;1.02;;;17.70;52.10;;;;;;6241645;23;20005;-74
2021/05/05 08:12:16;;;;;;;6.63;0.75;;;17.80;52.10;;;;;;6242598;23;20004;-73
2021/05/05 08:14:45;;;;;;;4.57;1.00;;;17.80;52.00;;;;;;6244332;23;20421;-74
2021/05/05 08:17:11;;;;;;;4.38;0.70;;;17.90;51.90;;;;;;6244116;23;20440;-74
2021/05/05 08:19:37;;;;;;;1.80;0.65;;;18.00;51.60;;;;;;6244498;23;20007;-74
2021/05/05 08:22:03;;;;;;;5.25;1.17;;;18.00;51.60;;;;;;6243661;23;20054;-73
2021/05/05 08:24:29;;;;;;;3.50;1.33;;;18.10;51.60;;;;;;6242085;23;20007;-74
2021/05/05 08:26:56;;;;;;;2.13;0.85;;;18.10;51.60;;;;;;6242111;23;20012;-73
2021/05/05 08:29:24;;;;;;;2.30;0.80;;;18.20;51.50;;;;;;6243259;23;20337;-75
2021/05/05 08:31:49;;;;;;;3.00;0.70;;;18.20;51.40;;;;;;6244283;23;20086;-74
2021/05/05 08:34:15;;;;;;;5.15;0.80;;;18.30;51.40;;;;;;6243622;23;20000;-75
2021/05/05 08:36:41;;;;;;;4.78;1.10;;;18.30;51.20;;;;;;6244828;23;20000;-76
2021/05/05 08:39:07;;;;;;;2.63;0.90;;;18.50;51.00;;;;;;6244840;23;20000;-75
2021/05/05 08:41:33;;;;;;;2.92;0.68;;;18.60;50.70;;;;;;6244680;23;20018;-75
2021/05/05 08:44:00;;;;;;;2.15;1.02;;;18.80;50.40;;;;;;6245611;23;20485;-74
2021/05/05 08:46:26;;;;;;;4.18;0.80;;;18.80;50.20;;;;;;6244807;23;20362;-74
2021/05/05 08:48:52;;;;;;;4.90;0.82;;;18.90;50.10;;;;;;6244612;23;20000;-79
2021/05/05 08:51:18;;;;;;;4.60;0.75;;;18.90;50.20;;;;;;6244042;23;20018;-78
2021/05/05 08:53:44;;;;;;;3.25;0.90;;;19.00;50.20;;;;;;6244691;23;20078;-79
2021/05/05 08:56:10;;;;;;;3.83;1.05;;;19.00;50.10;;;;;;6242366;23;20028;-78
2021/05/05 08:58:36;;;;;;;5.90;1.58;;;19.10;50.30;;;;;;6244488;23;20070;-79
2021/05/05 09:01:04;;;;;;;5.35;1.42;;;19.20;50.20;;;;;;6244084;23;20000;-82
2021/05/05 09:03:38;;;;;;;4.22;1.20;;;19.20;49.80;;;;;;6244551;23;20449;-80
2021/05/05 09:06:05;;;;;;;4.93;1.33;;;19.20;49.70;;;;;;6244620;23;20007;-81
2021/05/05 09:08:31;;;;;;;3.85;1.35;;;19.30;49.70;;;;;;6243817;23;20004;-77
2021/05/05 09:11:04;;;;;;;4.28;1.00;;;19.40;49.60;;;;;;6242101;23;20463;-81
2021/05/05 09:13:50;;;;;;;3.30;1.17;;;19.40;49.50;;;;;;6245030;23;20001;-80
2021/05/05 09:16:23;;;;;;;2.28;0.90;;;19.50;49.50;;;;;;6243899;23;20480;-80
2021/05/05 09:18:52;;;;;;;5.22;2.08;;;19.50;49.40;;;;;;6242833;23;20075;-78
2021/05/05 09:21:30;;;;;;;4.40;1.08;;;19.60;49.50;;;;;;6244151;23;20000;-83
2021/05/05 09:24:14;;;;;;;4.68;1.10;;;19.60;49.40;;;;;;6242265;23;20004;-81
2021/05/05 09:26:40;;;;;;;3.28;0.93;;;19.60;49.40;;;;;;6243251;23;20012;-78
2021/05/05 09:29:09;;;;;;;5.53;1.45;;;19.60;49.50;;;;;;6241613;23;20004;-80
2021/05/05 09:31:36;;;;;;;3.60;1.15;;;19.60;50.20;;;;;;6242025;23;20016;-83
2021/05/05 09:34:03;;;;;;;4.22;1.38;;;19.60;49.70;;;;;;6244281;23;20384;-79
2021/05/05 09:36:30;;;;;;;5.97;1.52;;;19.60;49.40;;;;;;6242359;23;20463;-82
2021/05/05 09:38:56;;;;;;;4.40;1.20;;;19.70;49.20;;;;;;6242939;23;20028;-84
2021/05/05 09:41:28;;;;;;;5.82;1.27;;;19.80;49.00;;;;;;6244168;23;20004;-77
2021/05/05 09:43:59;;;;;;;3.22;0.90;;;19.80;48.70;;;;;;6243737;23;20000;-77
2021/05/05 09:46:43;;;;;;;5.45;1.50;;;19.80;48.80;;;;;;6244669;23;20000;-79
2021/05/05 09:49:35;;;;;;;3.83;0.88;;;19.80;48.60;;;;;;6243624;23;20035;-75
2021/05/05 09:52:11;;;;;;;6.57;1.27;;;19.80;48.60;;;;;;6244595;23;20376;-85
2021/05/05 09:54:40;;;;;;;5.65;1.30;;;19.90;48.50;;;;;;6243819;23;20508;-85
2021/05/05 09:57:21;;;;;;;4.47;1.42;;;19.90;48.30;;;;;;6241422;23;20008;-84
2021/05/05 10:00:08;;;;;;;3.97;1.08;;;20.00;48.50;;;;;;6242494;23;20007;-81
2021/05/05 10:02:56;;;;;;;5.55;2.45;;;20.10;48.50;;;;;;6243401;23;20004;-77
2021/05/05 10:05:29;;;;;;;4.78;1.30;;;20.20;48.60;;;;;;6243800;23;20006;-83
2021/05/05 10:08:03;;;;;;;4.07;1.10;;;20.20;48.60;;;;;;6242685;23;20011;-85
2021/05/05 10:10:32;;;;;;;3.42;1.00;;;20.20;48.70;;;;;;6241063;23;20020;-83
2021/05/05 10:13:00;;;;;;;5.20;1.05;;;20.20;48.60;;;;;;6243618;23;20004;-82
2021/05/05 10:15:27;;;;;;;4.60;1.20;;;20.20;48.60;;;;;;6243464;23;20008;-82
2021/05/05 10:17:54;;;;;;;4.45;1.40;;;20.30;48.70;;;;;;6242915;23;20348;-78
2021/05/05 10:20:23;;;;;;;4.10;1.15;;;20.40;48.70;;;;;;6241893;23;20004;-78
2021/05/05 10:22:54;;;;;;;2.85;1.10;;;20.40;48.70;;;;;;6243527;23;19996;-80
2021/05/05 10:25:20;;;;;;;3.55;1.00;;;20.40;48.70;;;;;;6242244;23;20039;-81
2021/05/05 10:27:46;;;;;;;3.10;0.98;;;20.40;49.10;;;;;;6242082;23;20019;-81
2021/05/05 10:30:15;;;;;;;3.17;0.82;;;20.40;49.20;;;;;;6243744;23;20008;-84
2021/05/05 10:32:44;;;;;;;4.60;1.15;;;20.40;49.30;;;;;;6242569;23;19996;-82
2021/05/05 10:35:14;;;;;;;3.80;0.90;;;20.40;49.60;;;;;;6242799;23;20437;-80
2021/05/05 10:38:02;;;;;;;2.63;0.80;;;20.50;49.60;;;;;;6243564;23;20003;-81
2021/05/05 10:40:35;;;;;;;4.95;1.00;;;20.50;50.10;;;;;;6242890;23;20001;-80
2021/05/05 10:43:04;;;;;;;4.63;1.05;;;20.60;49.40;;;;;;6243933;23;20075;-81
2021/05/05 10:45:38;;;;;;;4.60;0.93;;;20.70;49.40;;;;;;6242895;23;20027;-80
2021/05/05 10:48:17;;;;;;;4.18;1.05;;;20.70;49.20;;;;;;6243607;23;20030;-78
2021/05/05 10:50:52;;;;;;;2.00;0.90;;;20.80;49.30;;;;;;6242929;23;20022;-80
2021/05/05 10:53:26;;;;;;;4.37;0.80;;;20.80;49.40;;;;;;6240047;23;20433;-79
2021/05/05 10:56:00;;;;;;;6.85;0.95;;;20.90;49.90;;;;;;6243666;23;20084;-81
2021/05/05 10:58:34;;;;;;;2.65;0.85;;;21.00;49.70;;;;;;6242780;23;20031;-79
2021/05/05 11:01:07;;;;;;;4.63;1.00;;;21.00;49.70;;;;;;6242410;23;20015;-79
2021/05/05 11:03:42;;;;;;;4.75;1.45;;;21.00;49.80;;;;;;6242573;23;20004;-80
2021/05/05 11:06:29;;;;;;;5.80;0.90;;;21.10;49.60;;;;;;6242419;23;20011;-82
2021/05/05 11:08:56;;;;;;;4.47;1.40;;;21.20;49.70;;;;;;6243070;23;20008;-83
2021/05/05 11:11:43;;;;;;;6.45;0.98;;;21.30;49.50;;;;;;6242996;23;20008;-84
2021/05/05 11:14:09;;;;;;;2.67;0.70;;;21.30;49.30;;;;;;6241933;23;20032;-82
2021/05/05 11:16:54;;;;;;;4.43;1.30;;;21.30;49.40;;;;;;6243174;23;20023;-81
2021/05/05 11:19:39;;;;;;;4.45;0.80;;;21.40;49.20;;;;;;6243253;23;20000;-82
2021/05/05 11:22:09;;;;;;;4.55;1.00;;;21.50;49.20;;;;;;6241640;23;20011;-81
2021/05/05 11:24:37;;;;;;;2.55;0.90;;;21.50;49.00;;;;;;6243179;23;20452;-83
2021/05/05 11:27:05;;;;;;;3.97;0.80;;;21.50;49.00;;;;;;6243006;23;20016;-83
2021/05/05 11:29:33;;;;;;;2.75;0.98;;;21.50;49.60;;;;;;6243111;23;20506;-81
2021/05/05 11:31:59;;;;;;;2.28;0.82;;;21.60;49.20;;;;;;6243383;23;20012;-83
2021/05/05 11:34:26;;;;;;;3.70;0.80;;;21.60;48.80;;;;;;6241532;23;20011;-86
2021/05/05 11:36:57;;;;;;;2.30;0.65;;;21.60;48.90;;;;;;6242603;23;20012;-82
2021/05/05 11:39:25;;;;;;;5.90;0.90;;;21.60;49.00;;;;;;6243375;23;20008;-85
2021/05/05 11:41:55;;;;;;;5.35;0.80;;;21.60;49.00;;;;;;6241663;23;20004;-88
2021/05/05 11:44:46;;;;;;;6.45;1.02;;;21.50;48.90;;;;;;6242854;23;20000;-81
2021/05/05 11:47:13;;;;;;;3.38;1.33;;;21.60;49.50;;;;;;6241598;23;20352;-83
2021/05/05 11:49:42;;;;;;;8.43;1.17;;;21.60;49.40;;;;;;6244265;23;20077;-80
2021/05/05 11:52:29;;;;;;;3.17;0.73;;;21.70;49.60;;;;;;6245651;23;20032;-83
2021/05/05 11:54:59;;;;;;;2.63;0.80;;;21.70;49.20;;;;;;6244846;23;20014;-81
2021/05/05 11:57:27;;;;;;;1.83;0.80;;;21.70;49.30;;;;;;6245219;23;20000;-84
2021/05/05 11:59:54;;;;;;;4.07;0.85;;;21.70;49.40;;;;;;6244599;23;20007;-83
2021/05/05 12:02:21;;;;;;;1.73;0.70;;;21.70;49.50;;;;;;6245023;23;20005;-84
2021/05/05 12:04:47;;;;;;;2.78;0.80;;;21.60;49.60;;;;;;6244642;23;20433;-83
2021/05/05 12:07:17;;;;;;;8.02;1.30;;;21.60;49.70;;;;;;6244795;23;20087;-83
2021/05/05 12:09:43;;;;;;;2.13;0.57;;;21.50;49.80;;;;;;6245378;23;20000;-80
2021/05/05 12:12:29;;;;;;;2.72;0.88;;;21.40;49.90;;;;;;6244867;23;20094;-80
2021/05/05 12:15:05;;;;;;;2.08;0.60;;;21.40;49.80;;;;;;6244006;23;20015;-82
2021/05/05 12:17:47;;;;;;;5.10;1.00;;;21.40;49.90;;;;;;6244285;23;20139;-83
2021/05/05 12:20:18;;;;;;;2.00;0.77;;;21.40;49.90;;;;;;6243773;23;20034;-82
2021/05/05 12:22:58;;;;;;;4.70;1.00;;;21.30;49.80;;;;;;6243617;23;20004;-84
2021/05/05 12:25:28;;;;;;;3.83;1.00;;;21.30;50.00;;;;;;6244453;23;20036;-80
2021/05/05 12:28:03;;;;;;;1.73;0.60;;;21.20;50.30;;;;;;6244504;23;20026;-84
2021/05/05 12:30:38;;;;;;;4.20;0.77;;;21.10;50.50;;;;;;6244534;23;20372;-82
2021/05/05 12:33:04;;;;;;;2.15;0.70;;;21.10;50.50;;;;;;6244401;23;20000;-82
2021/05/05 12:35:31;;;;;;;2.70;0.93;;;21.00;50.60;;;;;;6243117;23;20063;-80
2021/05/05 12:37:57;;;;;;;6.03;1.10;;;21.00;50.80;;;;;;6242070;23;20333;-82
2021/05/05 12:40:28;;;;;;;1.95;0.88;;;20.90;51.00;;;;;;6243839;23;19992;-80
2021/05/05 12:42:54;;;;;;;3.90;1.10;;;20.90;51.10;;;;;;6244451;23;20083;-81
2021/05/05 12:45:21;;;;;;;1.90;0.70;;;20.90;51.40;;;;;;6244896;23;20035;-81
2021/05/05 12:47:48;;;;;;;2.03;0.90;;;20.90;51.60;;;;;;6244748;23;20004;-80
2021/05/05 12:50:15;;;;;;;3.83;1.27;;;20.90;51.90;;;;;;6244811;23;20004;-80
2021/05/05 12:52:42;;;;;;;2.55;1.10;;;20.90;52.10;;;;;;6243985;23;20004;-81
2021/05/05 12:55:28;;;;;;;3.92;0.88;;;20.80;51.70;;;;;;6244522;23;20110;-85
2021/05/05 12:58:15;;;;;;;2.83;0.90;;;20.70;52.10;;;;;;6244179;23;20004;-74
2021/05/05 13:00:48;;;;;;;2.88;1.15;;;20.70;52.70;;;;;;6243903;23;20003;-77